Pagina principală
METAR-TAF:

METAR-TAF

Aeroporturi :

Jayapura, Indonezia

Latitudine: 02-34-37S, longitudine: 140-30-58E, elevație: 88 m

Observații meteo curente

Raportul a fost făcut în urmă cu 29 de minute, la 02:30 UTC
Vânt 3 kt de la Est
Temperatură 29°C
Umiditate 70%
Presiune 1009 hPa
Vizibilitate de 10 km sau mai mult
Nori împrăștiați la o înălțime de 1200 picior

METAR: WAJJ 020230Z 09003KT 9999 SCT012 29/23 Q1009 NOSIG

Ora: 09:59 (02:59 UTC)


TAF: lipsă

Observații și prognoze meteo pentru peste 4.000 de aeroporturi (rapoarte METAR și TAF).

Stațiile disponibile sunt reprezentate pe hartă prin puncte galbene și roșii.

Țineți indicatorul mouse-ului pe punctul dorit pentru a vedea denumirea stației.

Apoi, faceți clic pentru a vedea observațiile și prognozele meteorologice.

Pentru a schimba harta: Pentru mărire, faceți clic pe butoanele verzi cu cruce neagră; pentru micșorare, pe butonul verde cu o liniuță; pentru hărți învecinate, pe săgețile verzi.


METAR-TAF: